Time;durP1;ratioP1;P1;durP2;ratioP2;P2;SDS_P1;SDS_P2;PMS_P1;PMS_P2;Temp;Humidity;BMP_temperature;BMP_pressure;BME280_temperature;BME280_humidity;BME280_pressure;Samples;Min_cycle;Max_cycle;Signal;HPM_P1;HPM_P2
2021/12/03 00:00:36;;;;;;;7.07;3.83;;;1.80;99.90;;;;;;5050658;28;20033;-76
2021/12/03 00:03:02;;;;;;;9.32;3.08;;;1.90;99.90;;;;;;5051437;28;20040;-76
2021/12/03 00:05:28;;;;;;;7.85;2.63;;;2.00;99.90;;;;;;5051295;28;20031;-74
2021/12/03 00:07:53;;;;;;;3.22;2.17;;;2.00;99.90;;;;;;5050605;28;20040;-76
2021/12/03 00:10:23;;;;;;;2.58;2.00;;;2.00;99.90;;;;;;5051297;28;20021;-74
2021/12/03 00:12:49;;;;;;;3.22;2.33;;;2.00;99.90;;;;;;5051449;28;20033;-75
2021/12/03 00:15:15;;;;;;;7.97;2.95;;;2.10;99.90;;;;;;5050151;28;20020;-76
2021/12/03 00:17:41;;;;;;;6.93;2.30;;;2.00;99.90;;;;;;5051267;28;20436;-76
2021/12/03 00:20:11;;;;;;;7.03;2.20;;;2.10;99.90;;;;;;5051275;28;20032;-76
2021/12/03 00:22:37;;;;;;;4.28;2.28;;;2.00;99.90;;;;;;5050380;28;20120;-76
2021/12/03 00:25:03;;;;;;;3.53;2.75;;;2.00;99.90;;;;;;5051189;28;20052;-75
2021/12/03 00:27:29;;;;;;;6.78;2.78;;;2.00;99.90;;;;;;5055043;28;20029;-75
2021/12/03 00:29:54;;;;;;;8.50;2.83;;;2.00;99.90;;;;;;5053941;28;20027;-75
2021/12/03 00:32:20;;;;;;;12.93;2.60;;;2.10;99.90;;;;;;5054717;28;20025;-75
2021/12/03 00:34:46;;;;;;;5.55;1.85;;;2.10;99.90;;;;;;5054033;28;20032;-75
2021/12/03 00:37:11;;;;;;;5.75;2.63;;;2.20;99.90;;;;;;5054501;28;20047;-75
2021/12/03 00:39:37;;;;;;;4.47;2.10;;;2.10;99.90;;;;;;5059325;28;20080;-75
2021/12/03 00:42:04;;;;;;;3.15;1.63;;;2.10;99.90;;;;;;5056438;28;20029;-75
2021/12/03 00:44:30;;;;;;;6.68;1.33;;;2.10;99.90;;;;;;5054820;28;20025;-75
2021/12/03 00:46:58;;;;;;;7.53;1.40;;;2.20;99.90;;;;;;5054699;28;20393;-75
2021/12/03 00:49:24;;;;;;;1.90;1.52;;;2.10;99.90;;;;;;5053542;28;20028;-77
2021/12/03 00:51:49;;;;;;;10.18;2.90;;;2.30;99.90;;;;;;5054592;28;20017;-75
2021/12/03 00:54:15;;;;;;;6.35;2.40;;;2.30;99.90;;;;;;5054066;28;20028;-76
2021/12/03 00:56:41;;;;;;;2.35;1.95;;;2.20;99.90;;;;;;5053542;28;20025;-75
2021/12/03 00:59:06;;;;;;;4.82;1.50;;;2.20;99.90;;;;;;5054683;28;20025;-75
2021/12/03 01:01:33;;;;;;;2.55;1.52;;;2.50;99.90;;;;;;5053861;28;20033;-75
2021/12/03 01:03:58;;;;;;;6.03;2.00;;;2.30;99.90;;;;;;5053651;28;20156;-76
2021/12/03 01:06:24;;;;;;;3.92;2.35;;;2.20;99.90;;;;;;5053935;28;20120;-75
2021/12/03 01:08:50;;;;;;;4.22;2.28;;;2.20;99.90;;;;;;5053975;28;20103;-76
2021/12/03 01:11:15;;;;;;;3.20;2.67;;;2.20;99.90;;;;;;5053667;28;20036;-75
2021/12/03 01:13:43;;;;;;;6.75;2.80;;;2.30;99.90;;;;;;5054830;28;20021;-75
2021/12/03 01:16:10;;;;;;;6.45;2.15;;;2.30;99.90;;;;;;5054334;28;20422;-76
2021/12/03 01:18:37;;;;;;;5.90;2.28;;;2.20;99.90;;;;;;5053290;28;20025;-76
2021/12/03 01:21:03;;;;;;;8.82;2.00;;;2.20;99.90;;;;;;5054373;28;20076;-75
2021/12/03 01:23:30;;;;;;;6.25;2.17;;;2.20;99.90;;;;;;5053477;28;20445;-76
2021/12/03 01:25:56;;;;;;;9.60;1.70;;;2.20;99.90;;;;;;5053573;28;20358;-76
2021/12/03 01:28:22;;;;;;;5.10;1.35;;;2.20;99.90;;;;;;5054825;28;20025;-76
2021/12/03 01:30:48;;;;;;;2.42;1.38;;;2.20;99.90;;;;;;5054069;28;20017;-76
2021/12/03 01:33:14;;;;;;;3.58;1.40;;;2.30;99.90;;;;;;5052539;28;20071;-75
2021/12/03 01:35:40;;;;;;;3.15;1.73;;;2.20;99.90;;;;;;5053611;28;20060;-76
2021/12/03 01:38:07;;;;;;;7.07;1.85;;;2.20;99.90;;;;;;5051995;28;20071;-76
2021/12/03 01:40:34;;;;;;;4.20;1.83;;;2.30;99.90;;;;;;5053299;28;20430;-76
2021/12/03 01:43:01;;;;;;;3.67;1.88;;;2.30;99.90;;;;;;5053871;28;20025;-76
2021/12/03 01:45:31;;;;;;;3.60;1.52;;;2.40;99.90;;;;;;5052692;28;20028;-76
2021/12/03 01:47:58;;;;;;;9.05;2.85;;;2.40;99.90;;;;;;5053436;28;20104;-76
2021/12/03 01:50:27;;;;;;;7.55;2.40;;;2.50;99.90;;;;;;5053434;28;20090;-76
2021/12/03 01:52:54;;;;;;;5.47;1.70;;;2.40;99.90;;;;;;5052689;28;20028;-75
2021/12/03 01:55:20;;;;;;;3.42;1.27;;;2.50;99.90;;;;;;5053352;28;20468;-76
2021/12/03 01:57:45;;;;;;;4.70;1.63;;;2.50;99.90;;;;;;5053318;28;20458;-76
2021/12/03 02:00:21;;;;;;;5.60;1.40;;;2.50;99.90;;;;;;5052431;28;20028;-76
2021/12/03 02:02:47;;;;;;;9.98;2.25;;;2.50;99.90;;;;;;5053142;28;20032;-76
2021/12/03 02:05:13;;;;;;;6.25;1.75;;;2.50;99.90;;;;;;5052627;28;20377;-76
2021/12/03 02:07:39;;;;;;;5.40;2.10;;;2.60;99.90;;;;;;5052185;28;20745;-76
2021/12/03 02:10:06;;;;;;;2.85;1.30;;;2.60;99.90;;;;;;5052887;28;20036;-76
2021/12/03 02:12:31;;;;;;;4.88;1.50;;;2.60;99.90;;;;;;5053362;28;20059;-76
2021/12/03 02:14:57;;;;;;;4.28;1.65;;;2.50;99.90;;;;;;5056649;28;20088;-76
2021/12/03 02:17:22;;;;;;;5.40;1.75;;;2.60;99.90;;;;;;5052414;28;20083;-76
2021/12/03 02:19:50;;;;;;;5.53;2.03;;;2.60;99.90;;;;;;5051847;28;20051;-76
2021/12/03 02:22:16;;;;;;;5.18;2.78;;;2.60;99.90;;;;;;5051872;28;20029;-76
2021/12/03 02:24:42;;;;;;;6.57;2.15;;;2.70;99.90;;;;;;5052918;28;20079;-75
2021/12/03 02:27:07;;;;;;;8.20;2.60;;;2.70;99.90;;;;;;5052550;28;20029;-75
2021/12/03 02:29:33;;;;;;;5.70;1.45;;;2.70;99.90;;;;;;5052207;28;20044;-75
2021/12/03 02:31:59;;;;;;;4.80;1.98;;;2.70;99.90;;;;;;5052693;28;20024;-74
2021/12/03 02:34:24;;;;;;;6.18;1.55;;;2.60;99.90;;;;;;5051899;28;20025;-75
2021/12/03 02:36:50;;;;;;;3.10;1.65;;;2.50;99.90;;;;;;5052417;28;20027;-75
2021/12/03 02:39:16;;;;;;;8.60;1.80;;;2.40;99.90;;;;;;5052480;28;20053;-75
2021/12/03 02:41:41;;;;;;;4.53;1.50;;;2.50;99.90;;;;;;5051728;28;20043;-75
2021/12/03 02:44:07;;;;;;;5.63;1.85;;;2.40;99.90;;;;;;5052484;28;20060;-76
2021/12/03 02:46:35;;;;;;;3.47;1.77;;;2.40;99.90;;;;;;5051838;28;20020;-75
2021/12/03 02:49:01;;;;;;;5.78;2.05;;;2.40;99.90;;;;;;5051792;28;20037;-75
2021/12/03 02:51:26;;;;;;;1.90;1.23;;;2.40;99.90;;;;;;5052239;28;20017;-75
2021/12/03 02:53:52;;;;;;;12.00;1.80;;;2.40;99.90;;;;;;5052559;28;20032;-75
2021/12/03 02:56:18;;;;;;;3.08;1.50;;;2.40;99.90;;;;;;5051381;28;20389;-75
2021/12/03 02:58:43;;;;;;;4.07;1.60;;;2.50;99.90;;;;;;5052061;28;20025;-76
2021/12/03 03:01:10;;;;;;;5.47;1.70;;;2.40;99.90;;;;;;5052100;28;20396;-75
2021/12/03 03:03:36;;;;;;;5.68;1.48;;;2.40;99.90;;;;;;5051353;28;20433;-76
2021/12/03 03:06:03;;;;;;;7.40;1.83;;;2.50;99.90;;;;;;5032739;28;20040;-76
2021/12/03 03:08:30;;;;;;;3.58;1.85;;;2.50;99.90;;;;;;5031675;28;20405;-76
2021/12/03 03:10:57;;;;;;;3.63;1.60;;;2.50;99.90;;;;;;5031468;28;20030;-76
2021/12/03 03:13:23;;;;;;;2.97;1.80;;;2.40;99.90;;;;;;5032150;28;20025;-76
2021/12/03 03:15:49;;;;;;;6.50;2.17;;;2.40;99.90;;;;;;5032024;28;20034;-76
2021/12/03 03:18:19;;;;;;;5.82;2.00;;;2.40;99.90;;;;;;5031411;28;20036;-75
2021/12/03 03:20:45;;;;;;;3.57;1.87;;;2.50;99.90;;;;;;5031996;28;20029;-75
2021/12/03 03:23:12;;;;;;;3.38;1.80;;;2.40;99.90;;;;;;5031761;28;20745;-75
2021/12/03 03:25:40;;;;;;;5.20;2.08;;;2.40;99.90;;;;;;5031525;28;20040;-76
2021/12/03 03:28:06;;;;;;;5.20;1.98;;;2.40;99.90;;;;;;5032059;28;20029;-75
2021/12/03 03:30:32;;;;;;;3.72;1.90;;;2.40;99.90;;;;;;5030942;28;20385;-75
2021/12/03 03:32:59;;;;;;;2.67;1.77;;;2.40;99.90;;;;;;5032239;28;20378;-75
2021/12/03 03:35:28;;;;;;;3.42;1.73;;;2.50;99.90;;;;;;5031912;28;20033;-76
2021/12/03 03:37:54;;;;;;;6.63;2.72;;;2.50;99.90;;;;;;5031355;28;20028;-75
2021/12/03 03:40:19;;;;;;;6.78;1.70;;;2.50;99.90;;;;;;5031736;28;20029;-75
2021/12/03 03:42:45;;;;;;;1.85;1.55;;;2.50;99.90;;;;;;5031869;28;20046;-75
2021/12/03 03:45:16;;;;;;;3.10;2.15;;;2.60;99.90;;;;;;5030943;28;20082;-75
2021/12/03 03:47:42;;;;;;;9.57;2.30;;;2.60;99.90;;;;;;5035219;28;20037;-75
2021/12/03 03:50:09;;;;;;;4.88;2.20;;;2.60;99.90;;;;;;5036586;28;20018;-75
2021/12/03 03:52:36;;;;;;;9.65;2.13;;;2.60;99.90;;;;;;5030902;28;20108;-75
2021/12/03 03:55:03;;;;;;;9.13;2.03;;;2.50;99.90;;;;;;5031883;28;20033;-74
2021/12/03 03:57:28;;;;;;;4.10;1.85;;;2.60;99.90;;;;;;5031385;28;20470;-76
2021/12/03 03:59:54;;;;;;;2.70;1.67;;;2.60;99.90;;;;;;5031390;28;20022;-76
2021/12/03 04:02:19;;;;;;;5.65;2.55;;;2.60;99.90;;;;;;5035331;28;20155;-75
2021/12/03 04:04:45;;;;;;;4.55;1.63;;;2.60;99.90;;;;;;5035833;28;20056;-75
2021/12/03 04:07:11;;;;;;;14.55;2.30;;;2.70;99.90;;;;;;5034930;28;20032;-75
2021/12/03 04:09:36;;;;;;;4.97;1.70;;;2.60;99.90;;;;;;5035432;28;20573;-76
2021/12/03 04:12:05;;;;;;;3.60;1.60;;;2.60;99.90;;;;;;5035473;28;20088;-76
2021/12/03 04:14:31;;;;;;;2.03;1.88;;;2.60;99.90;;;;;;5034393;28;20065;-76
2021/12/03 04:16:56;;;;;;;6.97;1.67;;;2.50;99.90;;;;;;5035748;28;20060;-76
2021/12/03 04:19:22;;;;;;;4.05;1.98;;;2.50;99.90;;;;;;5035226;28;20071;-76
2021/12/03 04:21:47;;;;;;;4.40;2.03;;;2.50;99.90;;;;;;5034668;28;20041;-75
2021/12/03 04:24:13;;;;;;;4.40;1.98;;;2.70;99.90;;;;;;5035227;28;20650;-76
2021/12/03 04:26:39;;;;;;;2.88;1.65;;;2.70;99.90;;;;;;5035224;28;20030;-76
2021/12/03 04:29:04;;;;;;;4.43;1.73;;;2.90;99.90;;;;;;5034714;28;20470;-76
2021/12/03 04:31:30;;;;;;;3.22;1.30;;;3.00;99.90;;;;;;5034855;28;20497;-76
2021/12/03 04:33:56;;;;;;;5.13;1.95;;;3.00;99.90;;;;;;5034525;28;20029;-76
2021/12/03 04:36:21;;;;;;;2.65;1.70;;;3.00;99.90;;;;;;5035034;28;20029;-76
2021/12/03 04:38:50;;;;;;;4.60;1.83;;;3.00;99.90;;;;;;5035010;28;20025;-75
2021/12/03 04:41:15;;;;;;;6.85;1.77;;;3.10;99.90;;;;;;5033853;28;20033;-75
2021/12/03 04:43:41;;;;;;;11.85;2.17;;;3.00;99.90;;;;;;5035150;28;20025;-75
2021/12/03 04:46:06;;;;;;;14.13;2.15;;;3.20;99.90;;;;;;5034731;28;20134;-76
2021/12/03 04:48:32;;;;;;;7.68;2.65;;;3.20;99.90;;;;;;5034037;28;20037;-76
2021/12/03 04:50:59;;;;;;;2.35;1.65;;;3.20;99.90;;;;;;5034951;28;20049;-76
2021/12/03 04:53:24;;;;;;;7.78;2.10;;;3.30;99.90;;;;;;5033801;28;20080;-76
2021/12/03 04:55:50;;;;;;;5.68;2.63;;;3.20;99.90;;;;;;5034007;28;20501;-76
2021/12/03 04:58:17;;;;;;;3.53;2.75;;;3.30;99.90;;;;;;5034922;28;20060;-76
2021/12/03 05:00:47;;;;;;;4.60;2.80;;;3.40;99.90;;;;;;5034519;28;20029;-76
2021/12/03 05:03:13;;;;;;;6.82;2.97;;;3.40;99.90;;;;;;5034168;28;20026;-76
2021/12/03 05:05:46;;;;;;;6.32;2.90;;;3.40;99.90;;;;;;5034491;28;20465;-75
2021/12/03 05:08:12;;;;;;;10.48;3.70;;;3.30;99.90;;;;;;5034027;28;20065;-75
2021/12/03 05:10:41;;;;;;;11.45;4.75;;;3.30;99.90;;;;;;5033633;28;20021;-75
2021/12/03 05:13:10;;;;;;;11.77;4.80;;;3.40;99.90;;;;;;5033183;28;20108;-75
2021/12/03 05:15:37;;;;;;;10.38;4.43;;;3.40;99.90;;;;;;5034189;28;20030;-74
2021/12/03 05:18:04;;;;;;;13.77;6.07;;;3.40;99.90;;;;;;5033614;28;20033;-75
2021/12/03 05:20:29;;;;;;;20.73;6.32;;;3.40;99.90;;;;;;5034090;28;20030;-77
2021/12/03 05:22:56;;;;;;;12.02;5.75;;;3.40;99.90;;;;;;5041152;28;20212;-76
2021/12/03 05:25:22;;;;;;;11.55;5.40;;;3.40;99.90;;;;;;5034929;28;20057;-77
2021/12/03 05:27:50;;;;;;;13.50;5.47;;;3.50;99.90;;;;;;5034181;28;20493;-76
2021/12/03 05:30:16;;;;;;;12.60;5.93;;;3.70;99.90;;;;;;5033328;28;20079;-76
2021/12/03 05:32:42;;;;;;;16.05;4.97;;;3.70;99.90;;;;;;5033907;28;20029;-76
2021/12/03 05:35:09;;;;;;;13.55;4.47;;;3.80;99.90;;;;;;5034012;28;20470;-76
2021/12/03 05:37:35;;;;;;;16.95;4.90;;;3.80;99.90;;;;;;5032791;28;20053;-76
2021/12/03 05:40:04;;;;;;;11.88;5.03;;;3.80;99.90;;;;;;5034071;28;20068;-76
2021/12/03 05:42:30;;;;;;;12.13;4.75;;;3.70;99.90;;;;;;5033532;28;20033;-76
2021/12/03 05:44:57;;;;;;;20.48;4.45;;;3.70;99.90;;;;;;5033080;28;20109;-77
2021/12/03 05:47:23;;;;;;;19.48;6.30;;;3.70;99.90;;;;;;5033484;28;20030;-76
2021/12/03 05:49:52;;;;;;;12.63;4.07;;;3.80;99.90;;;;;;5033564;28;20022;-74
2021/12/03 05:52:17;;;;;;;14.30;5.70;;;3.90;99.90;;;;;;5032619;28;20029;-75
2021/12/03 05:54:45;;;;;;;15.07;4.82;;;4.00;99.90;;;;;;5033563;28;20021;-75
2021/12/03 05:57:11;;;;;;;11.50;4.75;;;3.90;99.90;;;;;;5033466;28;20029;-76
2021/12/03 05:59:37;;;;;;;20.38;4.68;;;3.90;99.90;;;;;;5032652;28;20028;-75
2021/12/03 06:02:02;;;;;;;10.68;5.05;;;3.90;99.90;;;;;;5033361;28;20404;-77
2021/12/03 06:04:29;;;;;;;12.93;4.72;;;3.90;99.90;;;;;;5032948;28;20044;-77
2021/12/03 06:06:54;;;;;;;8.65;4.60;;;3.90;99.90;;;;;;5032622;28;20057;-76
2021/12/03 06:09:20;;;;;;;20.35;5.50;;;3.90;99.90;;;;;;5032809;28;20422;-76
2021/12/03 06:11:46;;;;;;;19.92;6.15;;;3.80;99.90;;;;;;5033451;28;20481;-76
2021/12/03 06:14:11;;;;;;;12.05;5.18;;;3.80;99.90;;;;;;5032286;28;20392;-76
2021/12/03 06:16:37;;;;;;;20.00;6.20;;;3.90;99.90;;;;;;5033189;28;20029;-77
2021/12/03 06:19:03;;;;;;;14.57;4.88;;;3.80;99.90;;;;;;5033320;28;20477;-76
2021/12/03 06:21:29;;;;;;;21.15;5.97;;;3.80;99.90;;;;;;5032221;28;20044;-76
2021/12/03 06:23:54;;;;;;;13.93;5.18;;;3.90;99.90;;;;;;5032793;28;20017;-76
2021/12/03 06:26:20;;;;;;;10.85;4.82;;;3.90;99.90;;;;;;5049371;28;20056;-76
2021/12/03 06:28:46;;;;;;;18.35;6.03;;;3.90;99.90;;;;;;5044932;28;20037;-77
2021/12/03 06:31:11;;;;;;;23.08;6.28;;;4.00;99.90;;;;;;5036778;28;20793;-77
2021/12/03 06:33:37;;;;;;;18.70;4.35;;;3.90;99.90;;;;;;5033561;28;20552;-75
2021/12/03 06:36:04;;;;;;;16.52;5.95;;;3.90;99.90;;;;;;5031547;28;20036;-75
2021/12/03 06:38:31;;;;;;;9.90;4.63;;;3.90;99.90;;;;;;5030922;28;20026;-75
2021/12/03 06:40:56;;;;;;;9.82;4.50;;;3.90;99.90;;;;;;5030981;28;20029;-77
2021/12/03 06:43:22;;;;;;;17.05;4.60;;;3.90;99.90;;;;;;5030649;28;20477;-75
2021/12/03 06:45:47;;;;;;;22.38;5.03;;;3.90;99.90;;;;;;5031083;28;20021;-75
2021/12/03 06:48:13;;;;;;;10.07;3.60;;;4.00;99.90;;;;;;5030055;28;20057;-75
2021/12/03 06:50:39;;;;;;;17.15;4.82;;;4.00;99.90;;;;;;5030912;28;20018;-75
2021/12/03 06:53:07;;;;;;;12.30;4.57;;;4.00;99.90;;;;;;5031006;28;20022;-76
2021/12/03 06:55:44;;;;;;;11.10;4.68;;;4.00;99.90;;;;;;5031572;28;20030;-75
2021/12/03 06:58:09;;;;;;;21.50;5.07;;;4.00;99.90;;;;;;5035350;28;20130;-75
2021/12/03 07:00:36;;;;;;;10.15;3.75;;;4.00;99.90;;;;;;5031029;28;20041;-75
2021/12/03 07:03:01;;;;;;;17.80;3.80;;;4.00;99.90;;;;;;5043308;28;20108;-76
2021/12/03 07:05:30;;;;;;;9.65;3.53;;;4.00;99.90;;;;;;5050861;28;20029;-76
2021/12/03 07:07:55;;;;;;;13.75;3.38;;;3.90;99.90;;;;;;5050864;28;20174;-76
2021/12/03 07:10:21;;;;;;;16.02;3.53;;;4.00;99.90;;;;;;5050428;28;20443;-76
2021/12/03 07:12:47;;;;;;;11.98;4.20;;;3.90;99.90;;;;;;5051018;28;20098;-77
2021/12/03 07:15:12;;;;;;;17.90;5.32;;;3.90;99.90;;;;;;5050698;28;20028;-74
2021/12/03 07:17:38;;;;;;;16.42;3.60;;;3.90;99.90;;;;;;5050095;28;20516;-75
2021/12/03 07:20:05;;;;;;;17.00;4.15;;;3.90;99.90;;;;;;5051088;28;20017;-75
2021/12/03 07:22:31;;;;;;;11.82;4.00;;;4.00;99.90;;;;;;5047582;28;20037;-75
2021/12/03 07:24:57;;;;;;;14.43;4.35;;;4.00;99.90;;;;;;5050917;28;20017;-75
2021/12/03 07:27:25;;;;;;;14.02;4.07;;;4.00;99.90;;;;;;5049360;28;20117;-75
2021/12/03 07:29:51;;;;;;;13.00;3.80;;;4.00;99.90;;;;;;5040338;28;20457;-74
2021/12/03 07:32:19;;;;;;;12.25;3.40;;;4.00;99.90;;;;;;5047653;28;20032;-75
2021/12/03 07:34:45;;;;;;;15.75;3.63;;;4.00;99.90;;;;;;5048217;28;20021;-74
2021/12/03 07:37:20;;;;;;;18.35;5.93;;;4.00;99.90;;;;;;5050680;28;20395;-76
2021/12/03 07:39:54;;;;;;;20.80;3.88;;;4.00;99.90;;;;;;5055007;28;20139;-74
2021/12/03 07:42:20;;;;;;;8.20;2.67;;;4.00;99.90;;;;;;5054504;28;20492;-74
2021/12/03 07:44:46;;;;;;;15.52;4.53;;;4.00;99.90;;;;;;5054397;28;20025;-76
2021/12/03 07:47:15;;;;;;;10.82;4.18;;;4.10;99.90;;;;;;5053291;28;20048;-77
2021/12/03 07:49:41;;;;;;;15.45;4.05;;;4.00;99.90;;;;;;5052873;28;20016;-78
2021/12/03 07:52:11;;;;;;;15.68;3.72;;;4.00;99.90;;;;;;5052302;28;20044;-78
2021/12/03 07:54:36;;;;;;;7.93;3.83;;;4.00;99.90;;;;;;5054894;28;20017;-78
2021/12/03 07:57:02;;;;;;;13.00;4.03;;;4.00;99.90;;;;;;5054231;28;20392;-78
2021/12/03 07:59:27;;;;;;;16.17;3.78;;;4.00;99.90;;;;;;5052993;28;20392;-78
2021/12/03 08:01:53;;;;;;;14.38;4.15;;;4.00;99.90;;;;;;5052235;28;20039;-80
2021/12/03 08:04:19;;;;;;;8.77;4.60;;;4.00;99.90;;;;;;5054695;28;20067;-78
2021/12/03 08:06:51;;;;;;;11.15;3.50;;;4.00;99.90;;;;;;5053856;28;20017;-79
2021/12/03 08:09:18;;;;;;;11.35;4.00;;;4.00;99.90;;;;;;5055071;28;20118;-78
2021/12/03 08:11:43;;;;;;;13.35;4.85;;;4.00;99.90;;;;;;5055651;28;20041;-77
2021/12/03 08:14:09;;;;;;;15.50;4.88;;;4.00;99.90;;;;;;5055386;28;20492;-77
2021/12/03 08:16:34;;;;;;;15.52;4.82;;;4.10;99.90;;;;;;5055464;28;20029;-77
2021/12/03 08:19:00;;;;;;;15.95;6.40;;;4.10;99.90;;;;;;5049654;28;20021;-77
2021/12/03 08:21:26;;;;;;;13.43;4.10;;;4.10;99.90;;;;;;5053711;28;20040;-76
2021/12/03 08:23:54;;;;;;;19.23;5.07;;;4.10;99.90;;;;;;5055119;28;20029;-78
2021/12/03 08:26:20;;;;;;;25.55;5.35;;;4.10;99.90;;;;;;5054636;28;20025;-77
2021/12/03 08:28:46;;;;;;;18.23;4.78;;;4.10;99.90;;;;;;5056089;28;20029;-77
2021/12/03 08:31:14;;;;;;;24.45;5.25;;;4.10;99.90;;;;;;5052893;28;20476;-78
2021/12/03 08:33:40;;;;;;;20.85;5.00;;;4.10;99.90;;;;;;5056436;28;20436;-77
2021/12/03 08:36:05;;;;;;;17.80;5.32;;;4.10;99.90;;;;;;5045120;28;20021;-77
2021/12/03 08:38:31;;;;;;;14.48;4.85;;;4.20;99.90;;;;;;5035401;28;20113;-77
2021/12/03 08:40:57;;;;;;;17.85;6.07;;;4.20;99.90;;;;;;5035128;28;20017;-76
2021/12/03 08:43:25;;;;;;;17.02;4.82;;;4.20;99.90;;;;;;5035017;28;20036;-77
2021/12/03 08:45:54;;;;;;;19.42;5.20;;;4.20;99.90;;;;;;5035355;28;20033;-77
2021/12/03 08:48:22;;;;;;;25.77;4.97;;;4.30;99.90;;;;;;5034916;28;20060;-76
2021/12/03 08:51:09;;;;;;;20.48;4.40;;;4.30;99.90;;;;;;5035760;28;20051;-76
2021/12/03 08:56:20;;;;;;;15.57;4.35;;;4.30;99.90;;;;;;5034783;28;20029;-79
2021/12/03 08:58:46;;;;;;;13.60;4.05;;;4.30;99.90;;;;;;5036644;28;20116;-80
2021/12/03 09:01:13;;;;;;;16.83;3.72;;;4.40;99.90;;;;;;5034878;28;20132;-78
2021/12/03 09:03:39;;;;;;;11.57;4.53;;;4.40;99.90;;;;;;5035983;28;20030;-82
2021/12/03 09:06:04;;;;;;;12.57;3.78;;;4.40;99.90;;;;;;5036599;28;20025;-77
2021/12/03 09:08:30;;;;;;;14.57;5.55;;;4.50;99.90;;;;;;5034701;28;20532;-79
2021/12/03 09:10:56;;;;;;;9.25;4.07;;;4.50;99.90;;;;;;5034972;28;20474;-79
2021/12/03 09:13:22;;;;;;;11.82;3.58;;;4.60;99.90;;;;;;5034780;28;20029;-79
2021/12/03 09:16:01;;;;;;;15.50;3.85;;;4.50;99.90;;;;;;5034150;28;20022;-80
2021/12/03 09:18:31;;;;;;;8.57;3.38;;;4.60;99.90;;;;;;5034625;28;20048;-81
2021/12/03 09:26:04;;;;;;;13.27;3.55;;;4.80;99.90;;;;;;5041692;28;20021;-82
2021/12/03 09:28:30;;;;;;;12.27;3.35;;;4.80;99.90;;;;;;5051787;28;20499;-82
2021/12/03 09:30:56;;;;;;;16.77;3.65;;;4.80;99.90;;;;;;5050928;28;20024;-80
2021/12/03 09:33:26;;;;;;;19.50;4.10;;;4.90;99.90;;;;;;5053681;28;20029;-80
2021/12/03 09:35:56;;;;;;;24.13;4.68;;;4.80;99.90;;;;;;5055004;28;20025;-81
2021/12/03 09:38:24;;;;;;;10.73;3.47;;;4.80;99.90;;;;;;5036407;28;20366;-81
2021/12/03 09:40:50;;;;;;;22.55;4.15;;;4.80;99.90;;;;;;5034551;28;20059;-81
2021/12/03 09:43:19;;;;;;;25.38;5.40;;;4.80;99.90;;;;;;5034193;28;20107;-80
2021/12/03 09:45:57;;;;;;;17.70;4.57;;;4.80;99.90;;;;;;5035522;28;20040;-80
2021/12/03 09:48:35;;;;;;;23.23;4.78;;;4.80;99.90;;;;;;5042515;28;20059;-81
2021/12/03 09:51:09;;;;;;;21.55;4.82;;;4.80;99.90;;;;;;5043641;28;20028;-78
2021/12/03 09:56:12;;;;;;;15.27;5.18;;;4.80;99.90;;;;;;5054081;28;20017;-77
2021/12/03 10:01:12;;;;;;;11.65;3.40;;;4.80;99.90;;;;;;5055053;28;20119;-79
2021/12/03 10:04:00;;;;;;;14.07;3.90;;;4.80;99.90;;;;;;5053891;28;20106;-77
2021/12/03 10:10:13;;;;;;;15.95;3.42;;;4.80;99.90;;;;;;5053215;28;20191;-76
2021/12/03 10:13:06;;;;;;;11.10;3.75;;;4.80;99.90;;;;;;5052592;28;20183;-77
2021/12/03 10:36:51;;;;;;;14.30;3.90;;;5.00;99.90;;;;;;5050744;28;20039;-75
2021/12/03 10:48:00;;;;;;;10.05;4.07;;;5.10;99.90;;;;;;5051184;28;20025;-76
2021/12/03 10:50:48;;;;;;;19.42;4.38;;;5.10;99.90;;;;;;5050699;28;20033;-76
2021/12/03 10:53:26;;;;;;;13.25;3.78;;;5.10;99.90;;;;;;5048431;28;20147;-77
2021/12/03 11:26:51;;;;;;;7.35;3.42;;;5.50;99.90;;;;;;5047168;28;20548;-78
2021/12/03 11:29:00;;;;;;;5.85;3.03;;;5.60;99.90;;;;;;5049936;28;20032;-77
2021/12/03 11:35:00;;;;;;;16.25;3.75;;;5.60;99.90;;;;;;5048455;28;20477;-77
2021/12/03 11:40:32;;;;;;;18.13;3.85;;;5.60;99.90;;;;;;5050285;28;20032;-77
2021/12/03 11:44:44;;;;;;;8.57;2.78;;;5.60;99.90;;;;;;5047414;28;20044;-76
2021/12/03 13:11:58;;;;;;;9.63;3.35;;;5.70;99.90;;;;;;5035901;28;20092;-81
2021/12/03 13:31:54;;;;;;;8.50;4.53;;;5.50;99.90;;;;;;5034338;28;20109;-79
2021/12/03 13:36:44;;;;;;;3.65;3.35;;;5.40;99.90;;;;;;5033840;28;20087;-79
2021/12/03 13:40:36;;;;;;;5.20;3.58;;;5.40;99.90;;;;;;5034579;28;20059;-81
2021/12/03 14:11:39;;;;;;;6.10;3.58;;;5.30;99.90;;;;;;5033606;28;20124;-81
2021/12/03 14:34:43;;;;;;;4.78;3.70;;;5.30;99.90;;;;;;5032906;28;20116;-81
2021/12/03 14:41:36;;;;;;;3.88;3.55;;;5.30;99.90;;;;;;5033653;28;20083;-82
2021/12/03 14:49:12;;;;;;;4.95;3.15;;;5.30;99.90;;;;;;5033222;28;20036;-81
2021/12/03 14:56:48;;;;;;;4.60;3.50;;;6.30;99.90;;;;;;5033827;28;20048;-81
2021/12/03 14:59:29;;;;;;;3.33;3.13;;;5.30;99.90;;;;;;5048506;28;20029;-81
2021/12/03 15:02:07;;;;;;;4.80;3.40;;;5.30;99.90;;;;;;5032385;28;20033;-80
2021/12/03 15:07:23;;;;;;;3.30;3.00;;;5.30;99.90;;;;;;5032668;28;20036;-81
2021/12/03 15:09:50;;;;;;;3.90;3.50;;;5.30;99.90;;;;;;5033415;28;20045;-81
2021/12/03 15:12:47;;;;;;;4.85;3.83;;;5.20;99.90;;;;;;5033007;28;20033;-80
2021/12/03 15:15:59;;;;;;;4.30;3.85;;;6.50;99.90;;;;;;5031839;28;20497;-81
2021/12/03 15:23:34;;;;;;;3.92;3.63;;;5.30;99.90;;;;;;5033067;28;20044;-80
2021/12/03 15:27:00;;;;;;;5.32;4.82;;;5.20;99.90;;;;;;5033172;28;20048;-81
2021/12/03 15:56:05;;;;;;;;;;;5.30;99.90;;;;;;5033504;28;20044;-81
2021/12/03 15:58:37;;;;;;;12.50;7.95;;;5.30;99.90;;;;;;5036168;28;19909;-81
2021/12/03 16:04:34;;;;;;;7.43;6.72;;;5.20;99.90;;;;;;5036221;28;20040;-82
2021/12/03 16:06:42;;;;;;;7.63;6.93;;;5.20;99.90;;;;;;5026148;28;20096;-81
2021/12/03 16:09:25;;;;;;;8.90;7.70;;;5.30;99.90;;;;;;5036847;28;20060;-82
2021/12/03 16:11:57;;;;;;;10.50;8.82;;;5.30;99.90;;;;;;5045245;28;20021;-82
2021/12/03 16:17:17;;;;;;;9.27;8.38;;;5.30;99.90;;;;;;5049967;28;20040;-82
2021/12/03 16:25:09;;;;;;;10.10;9.30;;;5.30;99.90;;;;;;5035483;28;20083;-82
2021/12/03 16:30:59;;;;;;;10.90;9.63;;;5.40;99.90;;;;;;5035680;28;20037;-82
2021/12/03 16:44:34;;;;;;;12.00;10.88;;;5.40;99.90;;;;;;5035059;28;20097;-83
2021/12/03 16:50:04;;;;;;;11.57;10.50;;;5.40;99.90;;;;;;5036214;28;20470;-82
2021/12/03 16:52:32;;;;;;;16.88;11.95;;;5.40;99.90;;;;;;5035103;28;20079;-82
2021/12/03 16:55:00;;;;;;;13.00;11.80;;;5.50;99.90;;;;;;5035993;28;20030;-82
2021/12/03 16:57:34;;;;;;;14.63;11.63;;;5.50;99.90;;;;;;5036253;28;20104;-82
2021/12/03 17:00:15;;;;;;;15.10;10.68;;;5.50;99.90;;;;;;5034850;28;20025;-82
2021/12/03 17:02:48;;;;;;;15.77;12.05;;;5.50;99.90;;;;;;5035215;28;20531;-82
2021/12/03 17:13:11;;;;;;;13.82;10.65;;;5.50;99.90;;;;;;5041327;28;20091;-80
2021/12/03 17:19:04;;;;;;;12.77;11.48;;;5.50;99.90;;;;;;5033175;28;20037;-79
2021/12/03 17:29:27;;;;;;;12.98;11.65;;;5.50;99.90;;;;;;5058794;28;20029;-78
2021/12/03 17:48:13;;;;;;;11.02;9.95;;;5.50;99.90;;;;;;5032778;28;20036;-80
2021/12/03 17:58:37;;;;;;;11.23;10.18;;;5.40;99.90;;;;;;5033335;28;20026;-80
2021/12/03 18:01:30;;;;;;;10.23;9.25;;;5.40;99.90;;;;;;5032829;28;20128;-79
2021/12/03 18:46:43;;;;;;;20.90;12.20;;;5.50;99.90;;;;;;5046874;28;20039;-80
2021/12/03 18:49:25;;;;;;;18.23;11.95;;;5.50;99.90;;;;;;5037522;28;20045;-80
2021/12/03 18:54:35;;;;;;;19.55;12.48;;;5.40;99.90;;;;;;5037701;28;20022;-81
2021/12/03 18:57:09;;;;;;;15.63;13.23;;;5.50;99.90;;;;;;5034581;28;20037;-80
2021/12/03 18:59:39;;;;;;;12.80;11.50;;;5.50;99.90;;;;;;5033657;28;20033;-80
2021/12/03 19:02:07;;;;;;;15.85;13.25;;;5.50;99.90;;;;;;5033064;28;20030;-80
2021/12/03 19:04:45;;;;;;;20.20;14.75;;;5.50;99.90;;;;;;5034664;28;20080;-80
2021/12/03 19:07:18;;;;;;;13.35;12.00;;;5.50;99.90;;;;;;5037779;28;20064;-80
2021/12/03 19:09:50;;;;;;;12.88;11.68;;;5.50;99.90;;;;;;5035296;28;20073;-79
2021/12/03 19:12:21;;;;;;;14.32;12.73;;;5.50;99.90;;;;;;5032914;28;20029;-79
2021/12/03 19:14:52;;;;;;;16.13;13.00;;;5.50;99.90;;;;;;5049964;28;20018;-81
2021/12/03 19:17:18;;;;;;;13.48;12.13;;;5.50;99.90;;;;;;5045834;28;20029;-78
2021/12/03 19:19:48;;;;;;;17.27;13.60;;;5.50;99.90;;;;;;5043724;28;20057;-81
2021/12/03 19:22:15;;;;;;;13.60;12.30;;;5.50;99.90;;;;;;5050987;28;20124;-80
2021/12/03 19:24:41;;;;;;;14.98;13.55;;;5.50;99.90;;;;;;5052341;28;20025;-81
2021/12/03 19:27:09;;;;;;;15.13;13.63;;;5.60;99.90;;;;;;5046918;28;20131;-79
2021/12/03 19:29:35;;;;;;;14.80;13.18;;;5.50;99.90;;;;;;5042047;28;20544;-80
2021/12/03 19:32:01;;;;;;;15.68;13.75;;;5.50;99.90;;;;;;5048829;28;20492;-81
2021/12/03 19:34:26;;;;;;;15.70;13.50;;;5.40;99.90;;;;;;5034605;28;20029;-80
2021/12/03 19:36:54;;;;;;;17.15;15.45;;;5.40;99.90;;;;;;5040236;28;20037;-80
2021/12/03 19:39:23;;;;;;;16.25;13.70;;;5.40;99.90;;;;;;5035307;28;20018;-81
2021/12/03 19:42:00;;;;;;;16.10;14.45;;;5.40;99.90;;;;;;5031530;28;20390;-80